Time;durP1;ratioP1;P1;durP2;ratioP2;P2;SDS_P1;SDS_P2;PMS_P1;PMS_P2;Temp;Humidity;BMP_temperature;BMP_pressure;BME280_temperature;BME280_humidity;BME280_pressure;Samples;Min_cycle;Max_cycle;Signal;HPM_P1;HPM_P2
2023/06/03 00:03:31;;;;;;;;;;;;;;;13.89;100.00;95543.56;10510395;28;2027;-74
2023/06/03 00:08:34;;;;;;;;;;;;;;;13.83;100.00;95548.25;10506124;28;1996;-75
2023/06/03 00:13:36;;;;;;;;;;;;;;;13.80;100.00;95554.25;10504887;28;2111;-74
2023/06/03 00:18:39;;;;;;;;;;;;;;;13.72;100.00;95554.94;10509147;28;2451;-74
2023/06/03 00:23:41;;;;;;;;;;;;;;;13.63;100.00;95557.53;10505320;28;1887;-73
2023/06/03 00:28:44;;;;;;;;;;;;;;;13.58;100.00;95554.94;10506562;28;4387;-76
2023/06/03 00:33:47;;;;;;;;;;;;;;;13.53;100.00;95558.50;10513567;28;1880;-76
2023/06/03 00:38:49;;;;;;;;;;;;;;;13.37;100.00;95570.69;10514294;28;1906;-75
2023/06/03 00:43:52;;;;;;;;;;;;;;;13.28;100.00;95564.34;10507705;28;1911;-74
2023/06/03 00:48:54;;;;;;;;;;;;;;;13.22;100.00;95560.13;10500489;28;1995;-74
2023/06/03 00:53:57;;;;;;;;;;;;;;;13.08;100.00;95570.03;10508372;28;1957;-74
2023/06/03 00:59:00;;;;;;;;;;;;;;;13.03;100.00;95570.13;10506630;28;1985;-73
2023/06/03 01:04:03;;;;;;;;;;;;;;;12.90;100.00;95561.66;10502984;28;2031;-74
2023/06/03 01:09:06;;;;;;;;;;;;;;;12.86;100.00;95563.38;10503435;28;1993;-75
2023/06/03 01:14:08;;;;;;;;;;;;;;;12.74;100.00;95563.00;10501799;28;1974;-75
2023/06/03 01:19:14;;;;;;;;;;;;;;;12.75;100.00;95561.13;10508272;28;2240;-72
2023/06/03 01:24:17;;;;;;;;;;;;;;;12.69;100.00;95558.47;10508332;28;1957;-74
2023/06/03 01:29:19;;;;;;;;;;;;;;;12.62;100.00;95555.34;10504193;28;4352;-74
2023/06/03 01:34:22;;;;;;;;;;;;;;;12.58;100.00;95553.53;10505499;28;2048;-74
2023/06/03 01:39:24;;;;;;;;;;;;;;;12.52;100.00;95550.09;10503508;28;2282;-73
2023/06/03 01:44:26;;;;;;;;;;;;;;;12.43;100.00;95547.25;10505044;28;1987;-73
2023/06/03 01:49:31;;;;;;;;;;;;;;;12.40;100.00;95549.72;10512442;28;2013;-74
2023/06/03 01:54:33;;;;;;;;;;;;;;;12.33;100.00;95551.97;10503918;28;1977;-74
2023/06/03 01:59:36;;;;;;;;;;;;;;;12.25;100.00;95549.94;10506020;28;2090;-74
2023/06/03 02:04:38;;;;;;;;;;;;;;;12.23;100.00;95542.16;10499312;28;1986;-74
2023/06/03 02:09:40;;;;;;;;;;;;;;;12.18;100.00;95552.97;10502263;28;2010;-73
2023/06/03 02:14:43;;;;;;;;;;;;;;;12.06;100.00;95547.19;10498781;28;2260;-74
2023/06/03 02:19:45;;;;;;;;;;;;;;;12.09;100.00;95546.63;10503536;28;2018;-73
2023/06/03 02:24:47;;;;;;;;;;;;;;;11.98;100.00;95553.22;10502511;28;2109;-73
2023/06/03 02:29:50;;;;;;;;;;;;;;;11.93;100.00;95555.97;10512122;28;4377;-74
2023/06/03 02:34:54;;;;;;;;;;;;;;;11.85;100.00;95552.84;10508400;28;1973;-74
2023/06/03 02:39:56;;;;;;;;;;;;;;;11.78;100.00;95552.34;10503860;28;1976;-74
2023/06/03 02:44:59;;;;;;;;;;;;;;;11.75;100.00;95546.72;10503674;28;1977;-75
2023/06/03 02:50:02;;;;;;;;;;;;;;;11.69;100.00;95562.13;10506001;28;2001;-73
2023/06/03 02:55:05;;;;;;;;;;;;;;;11.61;100.00;95555.47;10499298;28;2035;-74
2023/06/03 03:00:10;;;;;;;;;;;;;;;11.54;100.00;95556.91;10508457;28;2012;-74
2023/06/03 03:05:13;;;;;;;;;;;;;;;11.47;100.00;95561.81;10504970;28;2259;-73
2023/06/03 03:10:16;;;;;;;;;;;;;;;11.36;100.00;95556.53;10504885;28;2287;-74
2023/06/03 03:15:18;;;;;;;;;;;;;;;11.36;100.00;95564.59;10501995;28;1971;-74
2023/06/03 03:20:21;;;;;;;;;;;;;;;11.30;100.00;95564.94;10505665;28;2096;-75
2023/06/03 03:25:24;;;;;;;;;;;;;;;11.29;100.00;95569.50;10503065;28;2043;-73
2023/06/03 03:30:27;;;;;;;;;;;;;;;11.35;100.00;95570.28;10507967;28;4450;-75
2023/06/03 03:35:29;;;;;;;;;;;;;;;11.33;100.00;95569.75;10513915;28;2016;-73
2023/06/03 03:40:31;;;;;;;;;;;;;;;11.33;100.00;95573.25;10515932;28;2121;-73
2023/06/03 03:45:34;;;;;;;;;;;;;;;11.38;100.00;95581.25;10506133;28;2082;-74
2023/06/03 03:50:37;;;;;;;;;;;;;;;11.50;100.00;95588.16;10508052;28;2017;-74
2023/06/03 03:55:41;;;;;;;;;;;;;;;11.59;100.00;95586.47;10505170;28;2045;-74
2023/06/03 04:00:44;;;;;;;;;;;;;;;11.64;100.00;95594.47;10510469;28;1937;-73
2023/06/03 04:05:47;;;;;;;;;;;;;;;11.73;100.00;95595.47;10503884;28;2280;-75
2023/06/03 04:10:49;;;;;;;;;;;;;;;12.03;100.00;95593.59;10511046;28;2241;-75
2023/06/03 04:15:52;;;;;;;;;;;;;;;12.17;100.00;95597.19;10509185;28;1985;-75
2023/06/03 04:20:56;;;;;;;;;;;;;;;12.47;100.00;95601.41;10516637;28;1969;-75
2023/06/03 04:25:58;;;;;;;;;;;;;;;12.28;100.00;95604.06;10510459;28;1997;-75
2023/06/03 04:31:01;;;;;;;;;;;;;;;12.64;100.00;95604.41;10509087;28;4474;-74
2023/06/03 04:36:03;;;;;;;;;;;;;;;12.97;100.00;95602.56;10504654;28;1985;-74
2023/06/03 04:41:06;;;;;;;;;;;;;;;12.96;100.00;95603.66;10508430;28;2018;-74
2023/06/03 04:46:10;;;;;;;;;;;;;;;12.96;100.00;95603.66;10503702;28;2018;-74
2023/06/03 04:51:13;;;;;;;;;;;;;;;12.96;100.00;95600.97;10505628;28;1910;-74
2023/06/03 04:56:16;;;;;;;;;;;;;;;13.07;100.00;95598.94;10509600;28;1945;-74
2023/06/03 05:01:21;;;;;;;;;;;;;;;13.36;100.00;95598.78;10513092;28;2322;-74
2023/06/03 05:06:24;;;;;;;;;;;;;;;13.50;100.00;95601.53;10515569;28;1882;-75
2023/06/03 05:11:26;;;;;;;;;;;;;;;13.57;100.00;95601.13;10511368;28;1888;-75
2023/06/03 05:16:29;;;;;;;;;;;;;;;13.47;100.00;95597.50;10511700;28;1978;-74
2023/06/03 05:21:31;;;;;;;;;;;;;;;13.75;100.00;95592.19;10506943;28;1914;-74
2023/06/03 05:26:33;;;;;;;;;;;;;;;13.73;100.00;95589.75;10512433;28;4418;-75
2023/06/03 05:31:36;;;;;;;;;;;;;;;14.00;100.00;95594.41;10508040;28;1998;-75
2023/06/03 05:36:39;;;;;;;;;;;;;;;14.13;100.00;95602.81;10514393;28;1898;-74
2023/06/03 05:41:42;;;;;;;;;;;;;;;14.36;100.00;95593.69;10506731;28;2100;-74
2023/06/03 05:46:44;;;;;;;;;;;;;;;14.99;100.00;95590.19;10506399;28;1891;-75
2023/06/03 05:51:47;;;;;;;;;;;;;;;14.64;100.00;95588.28;10507666;28;1919;-74
2023/06/03 05:56:49;;;;;;;;;;;;;;;14.89;100.00;95587.75;10504476;28;2254;-75
2023/06/03 06:01:51;;;;;;;;;;;;;;;14.87;100.00;95587.22;10506959;28;1880;-74
2023/06/03 06:06:54;;;;;;;;;;;;;;;15.70;100.00;95590.41;10508224;28;1985;-75
2023/06/03 06:11:57;;;;;;;;;;;;;;;15.64;100.00;95597.06;10497802;28;1898;-74
2023/06/03 06:16:59;;;;;;;;;;;;;;;15.92;100.00;95595.78;10505406;28;1987;-74
2023/06/03 06:22:02;;;;;;;;;;;;;;;15.93;100.00;95596.59;10505102;28;2005;-75
2023/06/03 06:27:05;;;;;;;;;;;;;;;16.00;100.00;95598.84;10509299;28;1953;-75
2023/06/03 06:32:09;;;;;;;;;;;;;;;16.12;100.00;95590.94;10501716;28;1879;-74
2023/06/03 06:37:12;;;;;;;;;;;;;;;16.10;100.00;95588.53;10509809;28;1890;-73
2023/06/03 06:42:15;;;;;;;;;;;;;;;16.80;100.00;95588.75;10508488;28;1906;-74
2023/06/03 06:47:17;;;;;;;;;;;;;;;16.31;100.00;95604.25;10507494;28;2116;-71
2023/06/03 06:52:21;;;;;;;;;;;;;;;16.69;100.00;95605.31;10514287;28;1915;-76
2023/06/03 06:57:24;;;;;;;;;;;;;;;17.52;100.00;95599.78;10505210;28;1874;-74
2023/06/03 07:02:27;;;;;;;;;;;;;;;17.93;100.00;95597.63;10506464;28;1916;-74
2023/06/03 07:07:29;;;;;;;;;;;;;;;17.19;100.00;95607.63;10516049;28;1970;-74
2023/06/03 07:12:32;;;;;;;;;;;;;;;16.40;100.00;95610.50;10512211;28;1927;-74
2023/06/03 07:17:34;;;;;;;;;;;;;;;16.63;100.00;95614.72;10511073;28;1951;-75
2023/06/03 07:22:37;;;;;;;;;;;;;;;17.32;100.00;95607.81;10507529;28;1902;-75
2023/06/03 07:27:39;;;;;;;;;;;;;;;17.53;100.00;95612.25;10512848;28;4403;-75
2023/06/03 07:32:42;;;;;;;;;;;;;;;17.87;100.00;95615.25;10505401;28;1922;-74
2023/06/03 07:37:45;;;;;;;;;;;;;;;17.63;100.00;95616.56;10514517;28;1855;-75
2023/06/03 07:42:47;;;;;;;;;;;;;;;18.10;100.00;95608.47;10513056;28;1923;-73
2023/06/03 07:47:50;;;;;;;;;;;;;;;18.36;100.00;95621.97;10509948;28;1909;-73
2023/06/03 07:52:53;;;;;;;;;;;;;;;18.24;100.00;95627.31;10513992;28;1914;-75
2023/06/03 07:57:55;;;;;;;;;;;;;;;17.74;100.00;95634.16;10511813;28;1960;-75
2023/06/03 08:02:58;;;;;;;;;;;;;;;17.36;100.00;95627.75;10510570;28;2029;-73
2023/06/03 08:08:00;;;;;;;;;;;;;;;18.18;100.00;95632.13;10506764;28;1991;-73
2023/06/03 08:13:03;;;;;;;;;;;;;;;17.47;100.00;95629.84;10504630;28;1931;-72
2023/06/03 08:18:05;;;;;;;;;;;;;;;17.77;100.00;95636.22;10509299;28;1868;-72
2023/06/03 08:23:08;;;;;;;;;;;;;;;18.56;100.00;95623.97;10512421;28;1910;-70
2023/06/03 08:28:10;;;;;;;;;;;;;;;18.24;100.00;95622.66;10511298;28;4419;-70
2023/06/03 08:33:13;;;;;;;;;;;;;;;18.09;100.00;95628.63;10510747;28;1852;-70
2023/06/03 08:38:16;;;;;;;;;;;;;;;18.25;100.00;95629.69;10505805;28;2040;-70
2023/06/03 08:43:18;;;;;;;;;;;;;;;18.82;100.00;95618.41;10509512;28;1887;-70
2023/06/03 08:48:21;;;;;;;;;;;;;;;18.60;100.00;95632.28;10507504;28;2577;-70
2023/06/03 08:53:23;;;;;;;;;;;;;;;18.56;100.00;95631.31;10509101;28;1873;-68
2023/06/03 08:58:25;;;;;;;;;;;;;;;18.54;100.00;95636.31;10504592;28;1930;-70
2023/06/03 09:03:28;;;;;;;;;;;;;;;18.55;100.00;95632.47;10510989;28;1914;-69
2023/06/03 09:08:30;;;;;;;;;;;;;;;18.88;100.00;95633.41;10507681;28;1951;-71
2023/06/03 09:13:33;;;;;;;;;;;;;;;19.02;100.00;95624.19;10511976;28;1913;-70
2023/06/03 09:18:36;;;;;;;;;;;;;;;19.28;100.00;95624.03;10499797;28;1951;-70
2023/06/03 09:23:38;;;;;;;;;;;;;;;19.08;100.00;95620.16;10506134;28;1905;-69
2023/06/03 09:28:40;;;;;;;;;;;;;;;19.02;100.00;95627.75;10508529;28;4347;-69
2023/06/03 09:33:43;;;;;;;;;;;;;;;18.90;100.00;95636.63;10508406;28;1855;-69
2023/06/03 09:38:45;;;;;;;;;;;;;;;19.36;100.00;95625.88;10508837;28;1959;-70
2023/06/03 09:43:47;;;;;;;;;;;;;;;19.49;100.00;95627.53;10512658;28;2472;-70
2023/06/03 09:48:50;;;;;;;;;;;;;;;19.98;100.00;95638.69;10507625;28;1913;-69
2023/06/03 09:53:52;;;;;;;;;;;;;;;19.77;100.00;95624.25;10508057;28;1883;-70
2023/06/03 09:58:55;;;;;;;;;;;;;;;19.23;100.00;95627.75;10507768;28;1938;-69
2023/06/03 10:03:58;;;;;;;;;;;;;;;18.83;100.00;95624.63;10499699;28;1920;-69
2023/06/03 10:09:02;;;;;;;;;;;;;;;18.88;100.00;95621.72;10507503;28;1922;-69
2023/06/03 10:14:05;;;;;;;;;;;;;;;19.42;100.00;95630.00;10511014;28;1907;-70
2023/06/03 10:19:08;;;;;;;;;;;;;;;19.59;100.00;95626.34;10502494;28;1895;-70
2023/06/03 10:24:11;;;;;;;;;;;;;;;20.05;100.00;95622.53;10508073;28;1887;-70
2023/06/03 10:29:13;;;;;;;;;;;;;;;20.13;100.00;95626.31;10504111;28;4268;-69
2023/06/03 10:34:15;;;;;;;;;;;;;;;20.74;97.91;95626.38;10504282;28;1977;-70
2023/06/03 10:39:18;;;;;;;;;;;;;;;21.16;90.33;95617.91;10499610;28;9007;-69
2023/06/03 10:44:21;;;;;;;;;;;;;;;21.54;91.10;95612.03;10505313;28;8233;-69
2023/06/03 10:49:24;;;;;;;;;;;;;;;21.03;90.93;95615.19;10503310;28;1942;-69
2023/06/03 10:54:27;;;;;;;;;;;;;;;22.30;82.78;95604.72;10501586;28;8303;-69
2023/06/03 10:59:29;;;;;;;;;;;;;;;21.56;88.54;95610.53;10500094;28;1887;-69
2023/06/03 11:04:32;;;;;;;;;;;;;;;22.07;86.49;95616.22;10502750;28;1897;-70
2023/06/03 11:09:34;;;;;;;;;;;;;;;22.11;84.94;95613.63;10503278;28;5416;-69
2023/06/03 11:14:41;;;;;;;;;;;;;;;22.00;85.51;95602.34;10498025;28;1918;-72
2023/06/03 11:19:44;;;;;;;;;;;;;;;22.01;82.82;95606.69;10504173;28;2040;-74
2023/06/03 11:24:47;;;;;;;;;;;;;;;21.15;90.20;95597.19;10502702;28;1941;-73
2023/06/03 11:29:49;;;;;;;;;;;;;;;20.83;93.00;95604.44;10503391;28;1918;-74
2023/06/03 11:34:52;;;;;;;;;;;;;;;20.97;92.29;95600.19;10504239;28;1886;-74
2023/06/03 11:39:55;;;;;;;;;;;;;;;20.58;94.76;95588.03;10498055;28;1875;-74
2023/06/03 11:44:57;;;;;;;;;;;;;;;20.68;94.46;95597.72;10501396;28;6940;-74
2023/06/03 11:50:00;;;;;;;;;;;;;;;21.08;90.37;95594.25;10509097;28;2021;-74
2023/06/03 11:55:03;;;;;;;;;;;;;;;21.22;86.43;95579.06;10507531;28;1886;-75
2023/06/03 12:00:09;;;;;;;;;;;;;;;21.14;85.03;95584.69;10516205;28;1829;-74
2023/06/03 12:05:12;;;;;;;;;;;;;;;21.00;89.04;95577.66;10513417;28;1871;-74
2023/06/03 12:10:15;;;;;;;;;;;;;;;21.48;86.40;95569.66;10510845;28;1977;-75
2023/06/03 12:15:17;;;;;;;;;;;;;;;21.38;84.87;95581.13;10513326;28;1899;-74
2023/06/03 12:20:20;;;;;;;;;;;;;;;21.37;83.65;95563.88;10512942;28;1981;-72
2023/06/03 12:25:23;;;;;;;;;;;;;;;21.30;80.67;95575.41;10513475;28;1910;-75
2023/06/03 12:30:28;;;;;;;;;;;;;;;21.77;80.18;95563.03;10513634;28;1887;-75
2023/06/03 12:35:31;;;;;;;;;;;;;;;21.80;78.93;95552.19;10510424;28;1930;-74
2023/06/03 12:40:33;;;;;;;;;;;;;;;21.57;78.33;95551.97;10500960;28;2040;-73
2023/06/03 12:45:36;;;;;;;;;;;;;;;21.96;74.90;95560.41;10506764;28;1919;-72
2023/06/03 12:50:38;;;;;;;;;;;;;;;22.09;72.72;95561.97;10513037;28;1878;-72
2023/06/03 12:55:41;;;;;;;;;;;;;;;21.70;74.65;95554.66;10507262;28;1915;-73
2023/06/03 13:00:44;;;;;;;;;;;;;;;21.70;74.02;95566.38;10508028;28;1894;-71
2023/06/03 13:05:46;;;;;;;;;;;;;;;21.94;74.48;95561.91;10505264;28;2137;-71
2023/06/03 13:10:49;;;;;;;;;;;;;;;22.24;68.25;95559.56;10508985;28;1972;-72
2023/06/03 13:15:52;;;;;;;;;;;;;;;22.47;68.38;95549.59;10506802;28;2009;-74
2023/06/03 13:20:54;;;;;;;;;;;;;;;22.78;64.51;95545.22;10500521;28;1895;-74
2023/06/03 13:25:57;;;;;;;;;;;;;;;21.96;66.49;95563.16;10519065;28;1865;-73
2023/06/03 13:30:59;;;;;;;;;;;;;;;22.10;69.01;95552.59;10515853;28;1985;-70
2023/06/03 13:36:02;;;;;;;;;;;;;;;21.90;70.33;95553.63;10507624;28;1918;-72
2023/06/03 13:41:05;;;;;;;;;;;;;;;22.32;68.78;95553.91;10511520;28;1898;-72
2023/06/03 13:46:09;;;;;;;;;;;;;;;21.77;67.65;95543.91;10496663;28;5113;-73
2023/06/03 13:51:12;;;;;;;;;;;;;;;22.06;67.96;95538.00;10481219;28;1978;-72
2023/06/03 13:56:14;;;;;;;;;;;;;;;22.43;62.40;95536.97;10502252;28;1843;-74
2023/06/03 14:01:17;;;;;;;;;;;;;;;22.68;60.72;95521.88;10504971;28;1851;-73
2023/06/03 14:06:21;;;;;;;;;;;;;;;22.51;61.85;95522.28;10506769;28;1855;-74
2023/06/03 14:11:23;;;;;;;;;;;;;;;22.81;59.11;95525.31;10503268;28;1983;-73
2023/06/03 14:16:26;;;;;;;;;;;;;;;21.97;65.66;95510.00;10511880;28;1876;-73
2023/06/03 14:21:29;;;;;;;;;;;;;;;22.31;64.73;95510.47;10498027;28;1931;-73
2023/06/03 14:26:35;;;;;;;;;;;;;;;22.47;63.23;95514.00;10508685;28;1995;-73
2023/06/03 14:31:40;;;;;;;;;;;;;;;22.62;63.66;95504.13;10510580;28;1957;-75
2023/06/03 14:36:42;;;;;;;;;;;;;;;22.45;62.14;95505.31;10485567;28;2369;-73
2023/06/03 14:41:45;;;;;;;;;;;;;;;22.46;59.86;95506.94;10502406;28;1945;-74
2023/06/03 14:46:48;;;;;;;;;;;;;;;23.02;58.74;95509.34;10505468;28;4989;-74
2023/06/03 14:51:50;;;;;;;;;;;;;;;23.28;58.29;95507.91;10506247;28;1983;-73
2023/06/03 14:56:52;;;;;;;;;;;;;;;22.85;56.40;95515.22;10505769;28;2161;-75
2023/06/03 15:01:55;;;;;;;;;;;;;;;23.08;55.65;95529.03;10508145;28;1900;-75
2023/06/03 15:06:57;;;;;;;;;;;;;;;22.90;57.33;95513.03;10499913;28;1993;-74
2023/06/03 15:11:59;;;;;;;;;;;;;;;23.52;55.86;95512.28;10507932;28;1902;-75
2023/06/03 15:17:02;;;;;;;;;;;;;;;23.43;55.84;95515.28;10490340;28;1890;-73
2023/06/03 15:22:05;;;;;;;;;;;;;;;22.56;58.24;95508.31;10518810;28;1891;-73
2023/06/03 15:27:07;;;;;;;;;;;;;;;22.30;58.91;95511.63;10516961;28;1910;-74
2023/06/03 15:32:09;;;;;;;;;;;;;;;22.81;57.11;95500.63;10511023;28;1922;-74
2023/06/03 15:37:12;;;;;;;;;;;;;;;23.51;53.89;95517.00;10496418;28;1928;-74
2023/06/03 15:42:14;;;;;;;;;;;;;;;23.82;53.03;95512.50;10512482;28;1923;-74
2023/06/03 15:47:17;;;;;;;;;;;;;;;23.05;55.22;95497.66;10516989;28;5269;-74
2023/06/03 15:52:19;;;;;;;;;;;;;;;22.81;57.03;95504.16;10511033;28;1993;-74
2023/06/03 15:57:21;;;;;;;;;;;;;;;23.04;56.54;95501.56;10511753;28;1874;-75
2023/06/03 16:02:24;;;;;;;;;;;;;;;22.85;58.35;95498.78;10514755;28;1888;-76
2023/06/03 16:07:27;;;;;;;;;;;;;;;22.47;61.42;95489.34;10531721;28;1894;-74
2023/06/03 16:12:29;;;;;;;;;;;;;;;22.20;62.71;95495.72;10507653;28;1910;-75
2023/06/03 16:17:31;;;;;;;;;;;;;;;21.91;65.15;95497.75;10507820;28;1848;-74
2023/06/03 16:22:34;;;;;;;;;;;;;;;21.71;66.96;95496.06;10509107;28;1876;-75
2023/06/03 16:27:36;;;;;;;;;;;;;;;21.94;66.93;95488.81;10505521;28;2266;-75
2023/06/03 16:32:39;;;;;;;;;;;;;;;21.55;70.87;95496.81;10514134;28;2111;-75
2023/06/03 16:37:41;;;;;;;;;;;;;;;21.20;74.63;95506.75;10509050;28;1855;-74
2023/06/03 16:42:43;;;;;;;;;;;;;;;21.22;76.98;95508.00;10507893;28;1907;-74
2023/06/03 16:47:46;;;;;;;;;;;;;;;21.27;74.17;95504.22;10511658;28;1944;-74
2023/06/03 16:52:49;;;;;;;;;;;;;;;21.44;73.93;95509.41;10510612;28;1901;-74
2023/06/03 16:57:51;;;;;;;;;;;;;;;21.83;71.52;95509.66;10507588;28;2017;-74
2023/06/03 17:02:54;;;;;;;;;;;;;;;21.68;72.52;95518.63;10515428;28;1891;-76
2023/06/03 17:07:56;;;;;;;;;;;;;;;21.55;71.30;95521.41;10511145;28;1913;-75
2023/06/03 17:12:59;;;;;;;;;;;;;;;21.36;71.31;95528.69;10511660;28;1910;-76
2023/06/03 17:18:01;;;;;;;;;;;;;;;21.22;73.13;95527.13;10510709;28;1987;-74
2023/06/03 17:23:04;;;;;;;;;;;;;;;21.10;74.34;95527.16;10508107;28;2413;-74
2023/06/03 17:28:06;;;;;;;;;;;;;;;20.94;75.82;95529.84;10509962;28;1888;-75
2023/06/03 17:33:09;;;;;;;;;;;;;;;20.88;75.74;95542.16;10513740;28;1967;-74
2023/06/03 17:38:11;;;;;;;;;;;;;;;20.74;78.58;95528.03;10508566;28;1822;-74
2023/06/03 17:43:14;;;;;;;;;;;;;;;20.71;80.59;95542.41;10507046;28;5169;-75
2023/06/03 17:48:16;;;;;;;;;;;;;;;20.46;80.33;95547.88;10498752;28;1995;-74
2023/06/03 17:53:19;;;;;;;;;;;;;;;20.39;82.24;95549.56;10511837;28;2016;-75
2023/06/03 17:58:21;;;;;;;;;;;;;;;20.32;82.65;95558.31;10508194;28;1894;-75
2023/06/03 18:03:24;;;;;;;;;;;;;;;20.27;82.66;95549.56;10502419;28;1906;-75
2023/06/03 18:08:27;;;;;;;;;;;;;;;20.14;84.48;95543.31;10514154;28;1903;-75
2023/06/03 18:13:29;;;;;;;;;;;;;;;20.04;87.56;95550.03;10506766;28;1993;-74
2023/06/03 18:18:32;;;;;;;;;;;;;;;19.91;90.07;95543.75;10508074;28;2240;-75
2023/06/03 18:23:35;;;;;;;;;;;;;;;19.82;92.45;95545.75;10499065;28;1917;-76
2023/06/03 18:28:37;;;;;;;;;;;;;;;19.71;93.54;95555.50;10506675;28;1986;-75
2023/06/03 18:33:40;;;;;;;;;;;;;;;19.57;93.84;95557.72;10501723;28;1996;-75
2023/06/03 18:38:43;;;;;;;;;;;;;;;19.47;94.74;95553.50;10505344;28;1922;-74
2023/06/03 18:43:45;;;;;;;;;;;;;;;19.30;96.58;95556.38;10509760;28;5212;-75
2023/06/03 18:48:48;;;;;;;;;;;;;;;19.14;99.02;95558.88;10504784;28;1943;-73
2023/06/03 18:53:51;;;;;;;;;;;;;;;18.98;100.00;95549.75;10499135;28;2198;-73
2023/06/03 18:58:54;;;;;;;;;;;;;;;18.78;100.00;95563.03;10506344;28;1935;-75
2023/06/03 19:04:08;;;;;;;;;;;;;;;18.60;100.00;95566.94;10495119;28;1915;-74
2023/06/03 19:09:12;;;;;;;;;;;;;;;18.46;100.00;95569.13;10505884;28;2040;-74
2023/06/03 19:14:15;;;;;;;;;;;;;;;18.29;100.00;95573.50;10508024;28;2508;-74
2023/06/03 19:19:18;;;;;;;;;;;;;;;18.19;100.00;95578.50;10499924;28;2210;-73
2023/06/03 19:24:20;;;;;;;;;;;;;;;18.08;100.00;95583.53;10500858;28;1903;-75
2023/06/03 19:29:23;;;;;;;;;;;;;;;17.91;100.00;95586.31;10502878;28;1926;-75
2023/06/03 19:34:26;;;;;;;;;;;;;;;17.83;100.00;95588.72;10510043;28;1921;-75
2023/06/03 19:39:28;;;;;;;;;;;;;;;17.71;100.00;95606.78;10500883;28;1990;-74
2023/06/03 19:44:31;;;;;;;;;;;;;;;17.59;100.00;95599.28;10506565;28;5209;-74
2023/06/03 19:49:33;;;;;;;;;;;;;;;17.47;100.00;95604.56;10499018;28;1943;-74
2023/06/03 19:54:36;;;;;;;;;;;;;;;17.46;100.00;95613.84;10507343;28;1988;-74
2023/06/03 19:59:39;;;;;;;;;;;;;;;17.21;100.00;95610.81;10506215;28;1919;-74
2023/06/03 20:04:41;;;;;;;;;;;;;;;17.18;100.00;95619.63;10506405;28;1902;-74
2023/06/03 20:09:45;;;;;;;;;;;;;;;17.23;100.00;95613.22;10506581;28;2262;-74
2023/06/03 20:14:48;;;;;;;;;;;;;;;16.96;100.00;95619.75;10511823;28;1989;-75
2023/06/03 20:19:51;;;;;;;;;;;;;;;16.87;100.00;95627.91;10509412;28;1844;-74
2023/06/03 20:24:54;;;;;;;;;;;;;;;16.87;100.00;95629.81;10509380;28;1857;-75
2023/06/03 20:29:57;;;;;;;;;;;;;;;16.63;100.00;95631.00;10514439;28;1993;-74
2023/06/03 20:35:00;;;;;;;;;;;;;;;16.54;100.00;95630.19;10509779;28;1970;-73
2023/06/03 20:40:03;;;;;;;;;;;;;;;16.50;100.00;95634.63;10511578;28;1962;-74
2023/06/03 20:45:06;;;;;;;;;;;;;;;16.36;100.00;95637.47;10510725;28;4958;-74
2023/06/03 20:50:08;;;;;;;;;;;;;;;16.27;100.00;95635.81;10510509;28;1989;-74
2023/06/03 20:55:10;;;;;;;;;;;;;;;16.35;100.00;95644.00;10510059;28;1925;-75
2023/06/03 21:00:13;;;;;;;;;;;;;;;16.11;100.00;95627.31;10506652;28;2059;-74
2023/06/03 21:05:16;;;;;;;;;;;;;;;16.07;100.00;95637.97;10507946;28;1879;-74
2023/06/03 21:10:18;;;;;;;;;;;;;;;16.03;100.00;95633.47;10506837;28;2224;-74
2023/06/03 21:15:21;;;;;;;;;;;;;;;15.89;100.00;95631.63;10508179;28;1839;-74
2023/06/03 21:20:23;;;;;;;;;;;;;;;15.78;100.00;95632.22;10510811;28;1904;-74
2023/06/03 21:25:26;;;;;;;;;;;;;;;15.83;100.00;95635.59;10510396;28;1866;-74
2023/06/03 21:30:28;;;;;;;;;;;;;;;15.87;100.00;95633.06;10506660;28;2052;-74
2023/06/03 21:35:31;;;;;;;;;;;;;;;15.89;100.00;95637.06;10502132;28;2131;-74
2023/06/03 21:40:33;;;;;;;;;;;;;;;15.91;100.00;95640.28;10490691;28;1876;-74
2023/06/03 21:45:36;;;;;;;;;;;;;;;15.87;100.00;95646.63;10508323;28;5168;-75
2023/06/03 21:50:38;;;;;;;;;;;;;;;15.73;100.00;95644.00;10508895;28;1899;-75
2023/06/03 21:55:41;;;;;;;;;;;;;;;15.72;100.00;95641.59;10492307;28;2003;-74
2023/06/03 22:00:44;;;;;;;;;;;;;;;15.66;100.00;95644.44;10503914;28;1887;-74
2023/06/03 22:05:47;;;;;;;;;;;;;;;15.55;100.00;95631.41;10509080;28;2588;-74
2023/06/03 22:10:50;;;;;;;;;;;;;;;15.50;100.00;95639.66;10504066;28;1910;-74
2023/06/03 22:15:53;;;;;;;;;;;;;;;15.45;100.00;95637.84;10507316;28;1948;-74
2023/06/03 22:20:55;;;;;;;;;;;;;;;15.31;100.00;95643.34;10508187;28;1875;-74
2023/06/03 22:25:58;;;;;;;;;;;;;;;15.34;100.00;95634.59;10505635;28;1921;-74
2023/06/03 22:31:01;;;;;;;;;;;;;;;15.20;100.00;95636.53;10486603;28;1965;-74
2023/06/03 22:36:03;;;;;;;;;;;;;;;14.99;100.00;95630.00;10500595;28;1902;-74
2023/06/03 22:41:06;;;;;;;;;;;;;;;14.90;100.00;95632.63;10503512;28;1986;-73
2023/06/03 22:46:09;;;;;;;;;;;;;;;14.71;100.00;95637.38;10503081;28;5074;-74
2023/06/03 22:51:11;;;;;;;;;;;;;;;14.75;100.00;95636.44;10499602;28;1914;-77
2023/06/03 22:56:14;;;;;;;;;;;;;;;14.64;100.00;95634.28;10500179;28;1875;-76
2023/06/03 23:01:17;;;;;;;;;;;;;;;14.48;100.00;95631.88;10509218;28;2352;-74
2023/06/03 23:06:19;;;;;;;;;;;;;;;14.35;100.00;95635.34;10507866;28;1956;-75
2023/06/03 23:11:22;;;;;;;;;;;;;;;14.35;100.00;95624.53;10504183;28;2039;-75
2023/06/03 23:16:25;;;;;;;;;;;;;;;14.27;100.00;95627.94;10504658;28;1895;-75
2023/06/03 23:21:30;;;;;;;;;;;;;;;14.14;100.00;95626.84;10505608;28;2123;-75
2023/06/03 23:26:32;;;;;;;;;;;;;;;14.10;100.00;95625.03;10501430;28;1853;-75
2023/06/03 23:31:34;;;;;;;;;;;;;;;14.05;100.00;95625.91;10501408;28;1953;-75
2023/06/03 23:36:37;;;;;;;;;;;;;;;13.96;100.00;95625.03;10506423;28;1903;-75
2023/06/03 23:41:39;;;;;;;;;;;;;;;13.91;100.00;95619.72;10503488;28;1926;-75
2023/06/03 23:46:42;;;;;;;;;;;;;;;13.71;100.00;95610.06;10508853;28;5101;-75
2023/06/03 23:51:44;;;;;;;;;;;;;;;13.66;100.00;95610.94;10503117;28;1909;-75
2023/06/03 23:56:46;;;;;;;;;;;;;;;13.67;100.00;95611.75;10505321;28;1958;-75
